AirNav   ProFlight Series 2 Aviation Headset
 
 1375 users online  

0CL4 700 North Brand Heliport
Glendale, California, USA

GOING TO GLENDALE?


FAA INFORMATION EFFECTIVE 18 JUNE 2020

Location

FAA Identifier: 0CL4
Lat/Long: 34-09-25.8900N 118-15-16.6000W
34-09.431500N 118-15.276667W
34.1571917,-118.2546111
(estimated)
Elevation: 770 ft. / 235 m (estimated)
Variation: 14E (1985)
From city: 1 mile NW of GLENDALE, CA
Time zone: UTC -7 (UTC -8 during Standard Time)
Zip code: 91203

Heliport Operations

Heliport use: Private use. Permission required prior to landing
Activation date: 10/1987
Control tower: no
ARTCC: LOS ANGELES CENTER
FSS: HAWTHORNE FLIGHT SERVICE STATION
Attendance: UNATNDD
Wind indicator: yes
Segmented circle: yes
Lights: FOR PERIMETER LGTS CALL 818-500-2140

Heliport Communications

WX ASOS at BUR (6 nm NW): PHONE 818-841-1384
WX AWOS-3PT at WHP (10 nm NW): 132.1 (818-899-9820)
WX AWOS-3PT at EMT (12 nm E): 118.75 ((626) 444-1107)
WX ASOS at VNY (12 nm W): PHONE 818-904-9213
WX ASOS at SMO (13 nm SW): PHONE 310-392-6453
WX ASOS at HHR (15 nm S): PHONE 310-973-8930
WX ASOS at LAX (15 nm SW): PHONE 310-568-1486
WX AWOS-3PT at CPM (16 nm S): 127.150 (310-631-4958)

Nearby radio navigation aids

VOR radial/distance  VOR name  Freq  Var
VNYr094/12.4VAN NUYS VOR/DME113.1015E
SMOr034/13.4SANTA MONICA VOR/DME110.8015E
LAXr018/16.1LOS ANGELES VORTAC113.6015E
POMr267/23.7POMONA VORTAC110.4015E
SLIr321/24.5SEAL BEACH VORTAC115.7015E
PMDr183/30.0PALMDALE VORTAC114.5015E
FIMr096/33.3FILLMORE VORTAC112.5015E
LHSr138/35.4LAKE HUGHES VORTAC114.3515E
PDZr277/38.8PARADISE VORTAC112.2015E
ELBr304/38.9EL TORO VOR/DME117.2014E
VTUr071/39.6VENTURA VOR/DME108.2015E

Heliport Services

Runway Information

Helipad H1

Dimensions: 50 x 50 ft. / 15 x 15 m
Surface: concrete
Runway edge lights: PERI
Latitude: 34-09.431500N
Longitude: 118-15.276667W
Elevation: 770.0 ft.
Traffic pattern: leftleft

Heliport Ownership and Management from official FAA records

Ownership: Privately-owned
Owner: BRE BRAND CENTRAL PARTNERS
700 N BRAND BLVD
GLENDALE, CA 91209
Phone 818-334-2240
Manager: LISA BAILOR
700 N BRAND BLVD
GLENDALE, CA 91209
Phone 818-334-2240

Additional Remarks

FOR CD CTC LOS ANGELES ARTCC AT 661-575-2079.

Instrument Procedures

There are no published instrument procedures at 0CL4.

Some nearby airports with instrument procedures:

KBUR - Bob Hope Airport (6 nm NW)
KWHP - Whiteman Airport (10 nm NW)
KEMT - San Gabriel Valley Airport (12 nm E)
KVNY - Van Nuys Airport (12 nm W)
KSMO - Santa Monica Municipal Airport (13 nm SW)
KHHR - Jack Northrop Field/Hawthorne Municipal Airport (15 nm S)
KLAX - Los Angeles International Airport (15 nm SW)
 
Loc | Ops | Rwys | IFR | FBO | Links
Com | Nav | Svcs | Stats | Notes
Area around 0CL4 (700 North Brand Heliport)
 
Road maps at: MapQuest Bing Google
 
Aerial photo
No photo
 
Sectional chart

 
Airport distance calculator
Flying to 700 North Brand Heliport? Find the distance to fly.

From to 0CL4

Sunrise and sunset
Times for 13-Jul-2020
 Local
(UTC-7)
 Zulu
(UTC)
Morning civil twilight05:2412:24
Sunrise05:5312:53
Sunset20:0503:05
Evening civil twilight20:3303:33

Current date and time
Zulu (UTC)  13-Jul-2020 14:50:54
Local (UTC-7)  13-Jul-2020 07:50:54
 
METAR
KBUR 
6nm NW 
131353Z 11006KT 10SM CLR 21/15 A2989 RMK AO2 SLP109 T02060150 $
KCQT 
7nm S 
131352Z AUTO VRB04KT 7SM FEW009 21/18 A2988 RMK AO2 SLP117 T02110178
KWHP 
10nm NW 
130155Z 11005KT 10SM SKC 32/08 A2986
KVNY 
12nm W 
131351Z AUTO 00000KT 10SM CLR 22/14 A2989 RMK AO2 SLP111 T02220144
KSMO 
13nm SW 
131442Z 09003KT 8SM SCT012 22/18 A2990 RMK AO2 T02170178
KEMT 
13nm SE 
130145Z 23005KT 10SM CLR 31/10 A2980
KLAX 
15nm SW 
131422Z 10006KT 6SM HZ FEW008 BKN015 21/17 A2989 RMK AO2 T02110172 $
KHHR 
15nm S 
131410Z 13007KT 9SM OVC015 21/17 A2989 RMK AO2 T02110167
TAF
KBUR 
6nm NW 
131137Z 1312/1412 10005KT P6SM SKC FM132000 18010KT P6SM SKC FM140400 12006KT P6SM SKC FM141000 14006KT P6SM OVC010
KVNY 
12nm W 
131137Z 1312/1412 10004KT P6SM SKC FM132000 15010KT P6SM SKC FM140300 12006KT P6SM SKC
KSMO 
13nm SW 
131416Z 1314/1412 00000KT P6SM BKN009 FM131500 VRB03KT 6SM BR BKN010 FM131700 20006KT P6SM SCT012 FM132000 24008KT P6SM SKC FM140500 VRB03KT P6SM OVC010 FM141000 VRB03KT P6SM OVC015
KLAX 
15nm SW 
131256Z 1313/1418 VRB03KT P6SM FEW007 FEW010 FM131400 VRB03KT P6SM OVC010 FM131700 25006KT P6SM SCT012 FM132000 25012KT P6SM SKC FM140300 25006KT P6SM SCT010 FM140500 VRB03KT P6SM OVC010 FM141500 15006KT P6SM OVC015
NOTAMs
Click for the latest NOTAMs
NOTAMs are issued by the DoD/FAA and will open in a separate window not controlled by AirNav.

 

 
 

Would you like to see your business listed on this page?

 If your business provides an interesting product or service to pilots, flight crews, aircraft, or users of the 700 North Brand Heliport, you should consider listing it here.  To start the listing process, click on the button below
 
Add a business
 

Other Pages about 700 North Brand Heliport

Update a link
 
Copyright © AirNav, LLC. All rights reserved. Privacy Policy  Contact